createdAt,value
2018-03-28T00:00:19.121Z,2.7
2018-03-28T00:02:18.803Z,2.6
2018-03-28T00:04:18.538Z,3.2
2018-03-28T00:06:18.871Z,2.5
2018-03-28T00:08:18.539Z,3.4
2018-03-28T00:10:18.613Z,3.5
2018-03-28T00:12:19.284Z,2.6
2018-03-28T00:14:18.950Z,3
2018-03-28T00:16:19.233Z,2.9
2018-03-28T00:18:18.960Z,2.3
2018-03-28T00:20:18.653Z,3.5
2018-03-28T00:22:19.328Z,3.1
2018-03-28T00:24:18.997Z,3.1
2018-03-28T00:26:19.272Z,3.5
2018-03-28T00:28:18.935Z,3.1
2018-03-28T00:30:18.625Z,3.2
2018-03-28T00:32:19.294Z,2.5
2018-03-28T00:34:18.965Z,3.3
2018-03-28T00:36:18.772Z,3.1
2018-03-28T00:38:18.428Z,3.9
2018-03-28T00:40:18.488Z,4
2018-03-28T00:42:19.166Z,4.5
2018-03-28T00:44:18.840Z,2.9
2018-03-28T00:46:18.631Z,3.1
2018-03-28T00:48:19.288Z,3.5
2018-03-28T00:50:18.980Z,4
2018-03-28T00:52:18.643Z,3.9
2018-03-28T00:54:19.314Z,3.2
2018-03-28T00:56:18.597Z,4.1
2018-03-28T00:58:19.309Z,3.8
2018-03-28T01:00:18.994Z,4.3
2018-03-28T01:02:18.662Z,4.2
2018-03-28T01:04:19.325Z,4.4
2018-03-28T01:06:18.627Z,4.4
2018-03-28T01:08:19.292Z,4.1
2018-03-28T01:10:19.358Z,4.2
2018-03-28T01:12:19.016Z,3.6
2018-03-28T01:14:18.682Z,4.4
2018-03-28T01:16:18.958Z,5.3
2018-03-28T01:18:18.672Z,4.3
2018-03-28T01:20:19.359Z,4.4
2018-03-28T01:22:19.033Z,4.5
2018-03-28T01:24:18.713Z,4
2018-03-28T01:26:18.526Z,5.1
2018-03-28T01:28:19.193Z,4.5
2018-03-28T01:30:18.885Z,5.1
2018-03-28T01:32:18.552Z,4.1
2018-03-28T01:34:19.214Z,4.4
2018-03-28T01:36:18.494Z,5.4
2018-03-28T01:38:19.156Z,5.7
2018-03-28T01:40:19.231Z,3.7
2018-03-28T01:42:18.892Z,4.9
2018-03-28T01:44:18.554Z,5
2018-03-28T01:46:18.826Z,4.8
2018-03-28T01:48:18.490Z,5.4
2018-03-28T01:50:19.192Z,4.1
2018-03-28T01:52:18.870Z,4.6
2018-03-28T01:54:18.534Z,5.2
2018-03-28T01:56:19.334Z,5.3
2018-03-28T01:58:19.015Z,5
2018-03-28T02:00:18.714Z,5.9
2018-03-28T02:02:19.378Z,4.3
2018-03-28T02:04:19.049Z,4.7
2018-03-28T02:06:18.843Z,5.6
2018-03-28T02:08:18.510Z,6
2018-03-28T02:10:18.579Z,5.7
2018-03-28T02:12:19.239Z,5.1
2018-03-28T02:14:18.905Z,4.4
2018-03-28T02:16:19.192Z,5.6
2018-03-28T02:18:18.912Z,5.4
2018-03-28T02:20:18.601Z,5.5
2018-03-28T02:22:19.268Z,5.8
2018-03-28T02:24:18.950Z,6.6
2018-03-28T02:26:19.229Z,6.2
2018-03-28T02:28:18.912Z,6.2
2018-03-28T02:30:18.613Z,5.6
2018-03-28T02:32:19.276Z,6.7
2018-03-28T02:34:18.936Z,5.3
2018-03-28T02:36:19.239Z,6.4
2018-03-28T02:38:18.909Z,6.5
2018-03-28T02:40:18.980Z,7.6
2018-03-28T02:42:18.636Z,6.8
2018-03-28T02:44:19.303Z,7.2
2018-03-28T02:46:18.607Z,7.4
2018-03-28T02:48:19.281Z,7.6
2018-03-28T02:50:18.972Z,8.1
2018-03-28T02:52:18.640Z,7.4
2018-03-28T02:54:19.321Z,7.2
2018-03-28T02:56:18.750Z,8.3
2018-03-28T02:58:18.469Z,7.8
2018-03-28T03:00:19.155Z,7.5
2018-03-28T03:02:18.828Z,7.1
2018-03-28T03:04:18.494Z,7.1
2018-03-28T03:06:18.793Z,7.3
2018-03-28T03:08:18.458Z,7
2018-03-28T03:10:18.542Z,7.2
2018-03-28T03:12:19.224Z,6.7
2018-03-28T03:14:18.885Z,6.8
2018-03-28T03:16:18.687Z,8.3
2018-03-28T03:18:19.412Z,6.8
2018-03-28T03:20:19.098Z,8.4
2018-03-28T03:22:18.752Z,7.1
2018-03-28T03:24:18.417Z,6.6
2018-03-28T03:26:18.678Z,8
2018-03-28T03:28:19.352Z,6.7
2018-03-28T03:30:19.039Z,7.8
2018-03-28T03:32:18.706Z,7.8
2018-03-28T03:34:19.360Z,8.5
2018-03-28T03:36:19.177Z,8.3
2018-03-28T03:38:18.843Z,7.7
2018-03-28T03:40:18.927Z,8.6
2018-03-28T03:42:18.586Z,9.1
2018-03-28T03:44:19.262Z,8.1
2018-03-28T03:46:19.105Z,8.2
2018-03-28T03:48:18.776Z,7.8
2018-03-28T03:50:18.469Z,8.4
2018-03-28T03:52:19.134Z,9.2
2018-03-28T03:54:18.804Z,9.4
2018-03-28T03:56:18.611Z,9.9
2018-03-28T03:58:19.278Z,7.2
2018-03-28T04:00:18.961Z,8.4
2018-03-28T04:02:18.620Z,7.8
2018-03-28T04:04:19.280Z,8.8
2018-03-28T04:06:18.575Z,9.6
2018-03-28T04:08:19.243Z,10.2
2018-03-28T04:10:19.332Z,9.7
2018-03-28T04:12:19.021Z,9.5
2018-03-28T04:14:18.687Z,10.3
2018-03-28T04:16:18.488Z,9.2
2018-03-28T04:18:19.220Z,8.7
2018-03-28T04:20:18.932Z,9.9
2018-03-28T04:22:18.587Z,9
2018-03-28T04:24:19.247Z,10.4
2018-03-28T04:26:18.546Z,9.3
2018-03-28T04:28:19.205Z,9.4
2018-03-28T04:30:18.908Z,9.6
2018-03-28T04:32:18.577Z,9.8
2018-03-28T04:34:19.244Z,9.6
2018-03-28T04:36:19.065Z,9.1
2018-03-28T04:38:18.738Z,10.4
2018-03-28T04:40:18.802Z,11.6
2018-03-28T04:42:18.467Z,10.6
2018-03-28T04:44:19.135Z,10.1
2018-03-28T04:46:19.412Z,9.9
2018-03-28T04:48:19.064Z,10
2018-03-28T04:50:18.778Z,10.7
2018-03-28T04:52:18.444Z,9.2
2018-03-28T04:54:19.111Z,10.5
2018-03-28T04:56:19.398Z,9.3
2018-03-28T04:58:19.064Z,10.6
2018-03-28T05:00:18.745Z,11
2018-03-28T05:02:19.409Z,9.9
2018-03-28T05:04:19.095Z,10
2018-03-28T05:06:18.431Z,10.6
2018-03-28T05:08:19.079Z,9.4
2018-03-28T05:10:19.148Z,10.7
2018-03-28T05:12:18.912Z,11
2018-03-28T05:14:18.576Z,11.6
2018-03-28T05:16:18.433Z,11.7
2018-03-28T05:18:19.164Z,10.5
2018-03-28T05:20:18.847Z,10.6
2018-03-28T05:22:18.508Z,11.8
2018-03-28T05:24:19.186Z,10.1
2018-03-28T05:26:18.468Z,10.9
2018-03-28T05:28:19.129Z,11.7
2018-03-28T05:30:18.820Z,11.5
2018-03-28T05:32:18.486Z,10.4
2018-03-28T05:34:19.160Z,12.1
2018-03-28T05:36:18.446Z,12.9
2018-03-28T05:38:19.120Z,12.4
2018-03-28T05:40:19.179Z,12
2018-03-28T05:42:18.842Z,12.5
2018-03-28T05:44:18.521Z,11.5
2018-03-28T05:46:18.800Z,11.2
2018-03-28T05:48:18.464Z,12.5
2018-03-28T05:50:19.161Z,13.1
2018-03-28T05:52:18.920Z,11.8
2018-03-28T05:54:18.578Z,12.3
2018-03-28T05:56:19.382Z,12.1
2018-03-28T05:58:19.044Z,13.3
2018-03-28T06:00:18.759Z,12.5
2018-03-28T06:02:18.423Z,12
2018-03-28T06:04:19.086Z,12.4
2018-03-28T06:06:19.381Z,11.7
2018-03-28T06:08:19.050Z,13.6
2018-03-28T06:10:19.134Z,11.6
2018-03-28T06:12:18.796Z,12.9
2018-03-28T06:14:18.449Z,13.3
2018-03-28T06:16:18.723Z,12.4
2018-03-28T06:18:18.450Z,13.8
2018-03-28T06:20:19.146Z,12.7
2018-03-28T06:22:18.800Z,14.8
2018-03-28T06:24:18.454Z,13.5
2018-03-28T06:26:19.098Z,13.9
2018-03-28T06:28:18.766Z,12.8
2018-03-28T06:30:18.463Z,11.9
2018-03-28T06:32:19.122Z,13.8
2018-03-28T06:34:18.781Z,15.1
2018-03-28T06:36:19.069Z,12.8
2018-03-28T06:38:18.724Z,14.1
2018-03-28T06:40:18.781Z,14.2
2018-03-28T06:42:18.477Z,11.9
2018-03-28T06:44:19.134Z,13.8
2018-03-28T06:46:18.962Z,14.6
2018-03-28T06:48:18.629Z,15.5
2018-03-28T06:50:19.305Z,14.8
2018-03-28T06:52:18.971Z,13.2
2018-03-28T06:54:18.641Z,14.3
2018-03-28T06:56:18.909Z,15.4
2018-03-28T06:58:18.580Z,15.4
2018-03-28T07:00:19.274Z,15.6
2018-03-28T07:02:18.934Z,15.4
2018-03-28T07:04:18.596Z,14.2
2018-03-28T07:06:18.888Z,13.4
2018-03-28T07:08:18.563Z,14.2
2018-03-28T07:10:18.630Z,14.8
2018-03-28T07:12:19.292Z,14.7
2018-03-28T07:14:18.952Z,16
2018-03-28T07:16:19.226Z,15.2
2018-03-28T07:18:18.954Z,16.9
2018-03-28T07:20:18.640Z,15.8
2018-03-28T07:22:19.308Z,16.6
2018-03-28T07:24:18.982Z,14.7
2018-03-28T07:26:19.323Z,16.9
2018-03-28T07:28:18.987Z,17.3
2018-03-28T07:30:18.681Z,15.8
2018-03-28T07:32:19.344Z,16.8
2018-03-28T07:34:19.020Z,15.2
2018-03-28T07:36:18.555Z,17.5
2018-03-28T07:38:19.339Z,16.6
2018-03-28T07:40:18.663Z,14.6
2018-03-28T07:42:19.449Z,15.6
2018-03-28T07:44:19.211Z,18.7
2018-03-28T07:46:18.696Z,17.5
2018-03-28T07:48:19.445Z,15.9
2018-03-28T07:50:19.224Z,17.1
2018-03-28T07:52:19.018Z,15.9
2018-03-28T07:54:18.878Z,15.9
2018-03-28T07:56:19.410Z,15.6
2018-03-28T07:58:19.167Z,15.8
2018-03-28T08:00:18.955Z,16.9
2018-03-28T08:02:18.743Z,14.4
2018-03-28T08:04:18.467Z,18.2
2018-03-28T08:06:18.962Z,18.1
2018-03-28T08:08:18.735Z,15.6
2018-03-28T08:10:19.050Z,18.2
2018-03-28T08:12:18.839Z,17.2
2018-03-28T08:14:18.634Z,16.9
2018-03-28T08:16:19.058Z,16.5
2018-03-28T08:18:18.909Z,15.9
2018-03-28T08:20:18.714Z,14.8
2018-03-28T08:22:19.452Z,16.7
2018-03-28T08:24:19.231Z,14.7
2018-03-28T08:26:18.792Z,18.5
2018-03-28T08:28:18.581Z,15
2018-03-28T08:30:19.360Z,16
2018-03-28T08:32:19.154Z,15.4
2018-03-28T08:34:18.938Z,15.7
2018-03-28T08:36:18.978Z,15.7
2018-03-28T08:38:18.769Z,16.9
2018-03-28T08:40:19.075Z,16.3
2018-03-28T08:42:18.872Z,16.9
2018-03-28T08:44:18.657Z,16.5
2018-03-28T08:46:19.112Z,16.6
2018-03-28T08:48:18.894Z,15.2
2018-03-28T08:50:18.697Z,16.3
2018-03-28T08:52:19.454Z,16.6
2018-03-28T08:54:19.249Z,16.8
2018-03-28T08:56:18.792Z,17.9
2018-03-28T08:58:18.586Z,16.4
2018-03-28T09:00:19.356Z,17.1
2018-03-28T09:02:19.132Z,13.6
2018-03-28T09:04:18.941Z,16.9
2018-03-28T09:06:19.443Z,17.2
2018-03-28T09:08:19.192Z,14.6
2018-03-28T09:10:19.420Z,17.4
2018-03-28T09:12:19.202Z,16.7
2018-03-28T09:14:18.981Z,17.2
2018-03-28T09:16:19.417Z,17.2
2018-03-28T09:18:19.263Z,15.9
2018-03-28T09:20:19.065Z,15.9
2018-03-28T09:22:18.844Z,18.6
2018-03-28T09:24:18.594Z,17.6
2018-03-28T09:26:19.146Z,17.4
2018-03-28T09:28:18.943Z,17.2
2018-03-28T09:30:18.727Z,18.7
2018-03-28T09:32:18.479Z,17.9
2018-03-28T09:34:19.248Z,16.3
2018-03-28T09:36:18.880Z,17
2018-03-28T09:38:18.651Z,18
2018-03-28T09:40:19.045Z,19
2018-03-28T09:42:18.779Z,20.2
2018-03-28T09:44:18.543Z,19.3
2018-03-28T09:46:18.712Z,18.2
2018-03-28T09:48:19.445Z,19.1
2018-03-28T09:50:19.185Z,20
2018-03-28T09:52:18.929Z,18.7
2018-03-28T09:54:18.670Z,19
2018-03-28T09:56:19.206Z,20
2018-03-28T09:58:18.998Z,17.9
2018-03-28T10:00:18.758Z,20.1
2018-03-28T10:02:18.483Z,18.1
2018-03-28T10:04:19.217Z,21.7
2018-03-28T10:06:18.782Z,22.4
2018-03-28T10:08:18.548Z,21.4
2018-03-28T10:10:18.904Z,21.2
2018-03-28T10:12:18.658Z,20.5
2018-03-28T10:14:19.444Z,19
2018-03-28T10:16:18.515Z,19.8
2018-03-28T10:18:19.341Z,20.1
2018-03-28T10:20:19.110Z,20.2
2018-03-28T10:22:18.883Z,21
2018-03-28T10:24:18.642Z,19.2
2018-03-28T10:26:19.187Z,20.9
2018-03-28T10:28:18.964Z,21.5
2018-03-28T10:30:18.731Z,20.9
2018-03-28T10:32:18.520Z,21.5
2018-03-28T10:34:19.300Z,21
2018-03-28T10:36:18.547Z,20.4
2018-03-28T10:38:19.330Z,20.3
2018-03-28T10:40:18.602Z,19.1
2018-03-28T10:42:19.386Z,19.6
2018-03-28T10:44:19.113Z,20.5
2018-03-28T10:46:18.667Z,20.1
2018-03-28T10:48:19.427Z,18.7
2018-03-28T10:50:19.191Z,18.2
2018-03-28T10:52:18.967Z,21.2
2018-03-28T10:54:18.753Z,19.2
2018-03-28T10:56:18.798Z,20.2
2018-03-28T10:58:18.546Z,18.9
2018-03-28T11:00:19.377Z,18.9
2018-03-28T11:02:19.115Z,17.3
2018-03-28T11:04:18.878Z,19.7
2018-03-28T11:06:18.731Z,18.4
2018-03-28T11:08:18.506Z,18.2
2018-03-28T11:10:18.701Z,18.8
2018-03-28T11:12:19.431Z,17.9
2018-03-28T11:14:19.182Z,18.3
2018-03-28T11:16:18.884Z,17.6
2018-03-28T11:18:18.712Z,17.3
2018-03-28T11:20:19.477Z,18.2
2018-03-28T11:22:19.253Z,16.2
2018-03-28T11:24:19.001Z,16.8
2018-03-28T11:26:18.564Z,17.6
2018-03-28T11:28:19.336Z,16
2018-03-28T11:30:19.106Z,16.1
2018-03-28T11:32:18.867Z,16.9
2018-03-28T11:34:18.607Z,15.9
2018-03-28T11:36:18.689Z,16.9
2018-03-28T11:38:19.444Z,16.1
2018-03-28T11:40:18.767Z,15.3
2018-03-28T11:42:18.531Z,16.7
2018-03-28T11:44:19.278Z,15
2018-03-28T11:46:19.362Z,15
2018-03-28T11:48:19.113Z,14.9
2018-03-28T11:50:18.841Z,15.8
2018-03-28T11:52:18.579Z,14.7
2018-03-28T11:54:19.353Z,16.7
2018-03-28T11:56:18.509Z,14.7
2018-03-28T11:58:19.267Z,17.6
2018-03-28T12:00:19.089Z,16.2
2018-03-28T12:02:18.872Z,15.4
2018-03-28T12:04:18.639Z,18.4
2018-03-28T12:06:19.150Z,18.5
2018-03-28T12:08:18.919Z,17.8
2018-03-28T12:10:19.173Z,18.2
2018-03-28T12:12:18.908Z,16.4
2018-03-28T12:14:18.737Z,16.4
2018-03-28T12:16:19.428Z,16.3
2018-03-28T12:18:19.292Z,17.8
2018-03-28T12:20:19.105Z,17.5
2018-03-28T12:22:18.855Z,18.3
2018-03-28T12:24:18.621Z,18.4
2018-03-28T12:26:19.357Z,17
2018-03-28T12:28:19.123Z,16
2018-03-28T12:30:18.903Z,17.8
2018-03-28T12:32:18.655Z,17.6
2018-03-28T12:34:19.435Z,18.4
2018-03-28T12:36:18.700Z,17.1
2018-03-28T12:38:19.458Z,17.9
2018-03-28T12:40:18.725Z,16.7
2018-03-28T12:42:19.460Z,18.5
2018-03-28T12:44:19.220Z,17.6
2018-03-28T12:46:19.351Z,18.4
2018-03-28T12:48:19.105Z,18.1
2018-03-28T12:50:18.863Z,16.3
2018-03-28T12:52:18.674Z,17.4
2018-03-28T12:54:18.574Z,18.7
2018-03-28T12:56:18.687Z,16.9
2018-03-28T12:58:19.453Z,17.2
2018-03-28T13:00:19.219Z,15.3
2018-03-28T13:02:18.848Z,16.2
2018-03-28T13:04:18.644Z,16.9
2018-03-28T13:06:18.601Z,16.9
2018-03-28T13:08:19.369Z,15.6
2018-03-28T13:10:18.631Z,15.9
2018-03-28T13:12:19.390Z,15
2018-03-28T13:14:19.162Z,15
2018-03-28T13:16:19.329Z,14.6
2018-03-28T13:18:19.174Z,15.3
2018-03-28T13:20:18.945Z,15.7
2018-03-28T13:22:18.703Z,12.9
2018-03-28T13:24:19.473Z,15.1
2018-03-28T13:26:19.057Z,14.5
2018-03-28T13:28:18.823Z,13.2
2018-03-28T13:30:18.583Z,15.1
2018-03-28T13:32:19.357Z,14
2018-03-28T13:34:19.102Z,12.6
2018-03-28T13:36:18.743Z,13.3
2018-03-28T13:38:18.541Z,12.7
2018-03-28T13:40:18.776Z,13.1
2018-03-28T13:42:18.950Z,12.6
2018-03-28T13:44:18.723Z,11.9
2018-03-28T13:46:18.957Z,14.1
2018-03-28T13:48:18.701Z,13.4
2018-03-28T13:50:19.458Z,12.1
2018-03-28T13:52:19.237Z,11.9
2018-03-28T13:54:19.014Z,12.3
2018-03-28T13:56:18.683Z,13.1
2018-03-28T13:58:19.418Z,12.1
2018-03-28T14:00:19.164Z,11.9
2018-03-28T14:02:18.936Z,12.7
2018-03-28T14:04:18.680Z,12.1
2018-03-28T14:06:19.395Z,12.4
2018-03-28T14:08:19.153Z,13.9
2018-03-28T14:10:19.346Z,13.6
2018-03-28T14:12:19.103Z,11.8
2018-03-28T14:14:18.876Z,12.5
2018-03-28T14:16:18.944Z,12.9
2018-03-28T14:18:18.776Z,12.8
2018-03-28T14:20:18.554Z,12
2018-03-28T14:22:19.326Z,12.8
2018-03-28T14:24:19.116Z,12
2018-03-28T14:26:18.664Z,12.6
2018-03-28T14:28:19.423Z,12.6
2018-03-28T14:30:19.218Z,11.9
2018-03-28T14:32:18.977Z,13.9
2018-03-28T14:34:18.720Z,13.5
2018-03-28T14:36:19.317Z,12.3
2018-03-28T14:38:19.118Z,13.7
2018-03-28T14:40:19.335Z,13
2018-03-28T14:42:19.127Z,12.7
2018-03-28T14:44:18.885Z,13.9
2018-03-28T14:46:18.876Z,11.3
2018-03-28T14:48:18.645Z,14.9
2018-03-28T14:50:19.406Z,14.6
2018-03-28T14:52:19.148Z,13.3
2018-03-28T14:54:18.927Z,12.2
2018-03-28T14:56:19.029Z,13.4
2018-03-28T14:58:18.776Z,13.6
2018-03-28T15:00:18.543Z,13.2
2018-03-28T15:02:19.316Z,12.7
2018-03-28T15:04:19.094Z,13.3
2018-03-28T15:06:18.777Z,14
2018-03-28T15:08:18.525Z,13.7
2018-03-28T15:10:18.739Z,13.9
2018-03-28T15:12:18.482Z,14.3
2018-03-28T15:14:19.214Z,13.9
2018-03-28T15:16:19.346Z,13.1
2018-03-28T15:18:19.187Z,12.1
2018-03-28T15:20:18.996Z,13.8
2018-03-28T15:22:19.203Z,13.7
2018-03-28T15:24:18.969Z,14
2018-03-28T15:26:18.571Z,13.6
2018-03-28T15:28:19.380Z,13.3
2018-03-28T15:30:19.148Z,13.2
2018-03-28T15:32:18.915Z,12
2018-03-28T15:34:18.660Z,13.9
2018-03-28T15:36:19.172Z,13.3
2018-03-28T15:38:18.949Z,13.8
2018-03-28T15:40:19.187Z,12.7
2018-03-28T15:42:18.772Z,13
2018-03-28T15:44:18.535Z,12.4
2018-03-28T15:46:19.138Z,12
2018-03-28T15:48:18.872Z,12
2018-03-28T15:50:18.630Z,14.6
2018-03-28T15:52:19.451Z,13.7
2018-03-28T15:54:19.175Z,14.3
2018-03-28T15:56:19.125Z,13.8
2018-03-28T15:58:18.910Z,14.1
2018-03-28T16:00:18.718Z,13.8
2018-03-28T16:02:18.499Z,13.6
2018-03-28T16:04:19.241Z,13.7
2018-03-28T16:06:18.940Z,13.1
2018-03-28T16:08:18.715Z,13.7
2018-03-28T16:10:18.950Z,15
2018-03-28T16:12:18.704Z,13.4
2018-03-28T16:14:18.502Z,12.6
2018-03-28T16:16:19.161Z,13.2
2018-03-28T16:18:19.030Z,14.4
2018-03-28T16:20:18.992Z,13.5
2018-03-28T16:22:18.761Z,12.5
2018-03-28T16:24:18.509Z,16
2018-03-28T16:26:18.599Z,13.3
2018-03-28T16:28:19.363Z,14.2
2018-03-28T16:30:19.129Z,14.5
2018-03-28T16:32:18.878Z,12.8
2018-03-28T16:34:18.654Z,14.1
2018-03-28T16:36:18.830Z,14.3
2018-03-28T16:38:18.621Z,13.6
2018-03-28T16:40:18.890Z,14.1
2018-03-28T16:42:18.687Z,15.3
2018-03-28T16:44:19.447Z,14.7
2018-03-28T16:46:18.499Z,13.2
2018-03-28T16:48:19.270Z,14.5
2018-03-28T16:50:19.026Z,14
2018-03-28T16:52:18.771Z,13.7
2018-03-28T16:54:18.522Z,15.2
2018-03-28T16:56:19.299Z,14.8
2018-03-28T16:58:19.051Z,16.4
2018-03-28T17:00:18.846Z,15.6
2018-03-28T17:02:18.626Z,14.6
2018-03-28T17:04:19.390Z,15
2018-03-28T17:06:18.936Z,15.5
2018-03-28T17:08:18.678Z,14.5
2018-03-28T17:10:18.873Z,16.7
2018-03-28T17:12:18.630Z,13.5
2018-03-28T17:14:19.379Z,16.3
2018-03-28T17:16:18.978Z,16.9
2018-03-28T17:18:18.816Z,15
2018-03-28T17:20:18.580Z,16.3
2018-03-28T17:22:19.326Z,15.7
2018-03-28T17:24:19.075Z,16.6
2018-03-28T17:26:19.267Z,16.1
2018-03-28T17:28:19.050Z,17.3
2018-03-28T17:30:18.845Z,15.7
2018-03-28T17:32:18.613Z,14.8
2018-03-28T17:34:19.367Z,16
2018-03-28T17:36:18.578Z,16.4
2018-03-28T17:38:19.416Z,16.5
2018-03-28T17:40:18.786Z,15.1
2018-03-28T17:42:18.536Z,17.4
2018-03-28T17:44:19.285Z,16.6
2018-03-28T17:46:19.073Z,17.7
2018-03-28T17:48:18.864Z,17.8
2018-03-28T17:50:18.634Z,17.1
2018-03-28T17:52:19.408Z,17.6
2018-03-28T17:54:19.151Z,15
2018-03-28T17:56:18.694Z,17.5
2018-03-28T17:58:19.468Z,17.5
2018-03-28T18:00:19.210Z,16.9
2018-03-28T18:02:18.987Z,17.2
2018-03-28T18:04:18.766Z,15.9
2018-03-28T18:06:19.382Z,17
2018-03-28T18:08:19.139Z,18.2
2018-03-28T18:10:19.369Z,19.4
2018-03-28T18:12:19.129Z,17.2
2018-03-28T18:14:18.879Z,19
2018-03-28T18:16:19.406Z,18
2018-03-28T18:18:19.228Z,18.4
2018-03-28T18:20:19.156Z,19.6
2018-03-28T18:22:18.921Z,20.8
2018-03-28T18:24:18.696Z,18.5
2018-03-28T18:26:18.779Z,19.7
2018-03-28T18:28:18.566Z,19
2018-03-28T18:30:19.329Z,17.9
2018-03-28T18:32:19.158Z,18.6
2018-03-28T18:34:18.909Z,19.5
2018-03-28T18:36:18.645Z,19.3
2018-03-28T18:38:19.399Z,18.5
2018-03-28T18:40:18.627Z,19.3
2018-03-28T18:42:19.381Z,20.2
2018-03-28T18:44:19.154Z,19.5
2018-03-28T18:46:18.476Z,21.2
2018-03-28T18:48:19.264Z,20.5
2018-03-28T18:50:19.163Z,19.5
2018-03-28T18:52:18.996Z,18.8
2018-03-28T18:54:18.779Z,20.1
2018-03-28T18:56:18.832Z,20.6
2018-03-28T18:58:18.576Z,18.3
2018-03-28T19:00:19.345Z,19
2018-03-28T19:02:19.116Z,20.2
2018-03-28T19:04:18.872Z,19.4
2018-03-28T19:06:19.289Z,20.6
2018-03-28T19:08:19.065Z,18.7
2018-03-28T19:10:19.315Z,19.1
2018-03-28T19:12:19.098Z,19.5
2018-03-28T19:14:18.871Z,20.2
2018-03-28T19:16:19.003Z,21.4
2018-03-28T19:18:18.866Z,19.8
2018-03-28T19:20:18.621Z,19.9
2018-03-28T19:22:19.432Z,19.5
2018-03-28T19:24:19.198Z,19.9
2018-03-28T19:26:19.267Z,21.9
2018-03-28T19:28:19.024Z,21.2
2018-03-28T19:30:18.782Z,20.8
2018-03-28T19:32:18.533Z,18.8
2018-03-28T19:34:19.298Z,22.8
2018-03-28T19:36:18.789Z,20.6
2018-03-28T19:38:18.555Z,21.7
2018-03-28T19:40:18.937Z,22.3
2018-03-28T19:42:18.691Z,18.1
2018-03-28T19:44:19.468Z,21.4
2018-03-28T19:46:18.547Z,20.7
2018-03-28T19:48:19.275Z,21.7
2018-03-28T19:50:19.047Z,19.7
2018-03-28T19:52:18.817Z,21
2018-03-28T19:54:18.591Z,21.3
2018-03-28T19:56:18.645Z,19.1
2018-03-28T19:58:19.417Z,21.8
2018-03-28T20:00:19.199Z,21.6
2018-03-28T20:02:18.940Z,22.1
2018-03-28T20:04:18.719Z,20.9
2018-03-28T20:06:18.817Z,21.9
2018-03-28T20:08:18.602Z,19.9
2018-03-28T20:10:18.847Z,19.8
2018-03-28T20:12:18.599Z,22.4
2018-03-28T20:14:19.368Z,19.8
2018-03-28T20:16:18.908Z,18.5
2018-03-28T20:18:18.760Z,20.6
2018-03-28T20:20:19.152Z,20.3
2018-03-28T20:22:18.889Z,19.9
2018-03-28T20:24:18.637Z,18.5
2018-03-28T20:26:19.163Z,18.4
2018-03-28T20:28:18.903Z,17.7
2018-03-28T20:30:18.762Z,19.6
2018-03-28T20:32:18.508Z,18.4
2018-03-28T20:34:19.264Z,21.2
2018-03-28T20:36:18.850Z,19.5
2018-03-28T20:38:18.599Z,18.4
2018-03-28T20:40:18.842Z,19.6
2018-03-28T20:42:18.591Z,18
2018-03-28T20:44:19.375Z,17.9
2018-03-28T20:46:18.595Z,17.8
2018-03-28T20:48:19.343Z,18.5
2018-03-28T20:50:19.137Z,17.3
2018-03-28T20:52:18.911Z,16.8
2018-03-28T20:54:18.676Z,18.2
2018-03-28T20:56:18.997Z,18.1
2018-03-28T20:58:18.729Z,17
2018-03-28T21:00:19.475Z,17.5
2018-03-28T21:02:19.234Z,18.9
2018-03-28T21:04:19.008Z,17
2018-03-28T21:06:19.023Z,19.9
2018-03-28T21:08:18.766Z,18.4
2018-03-28T21:10:19.001Z,17
2018-03-28T21:12:18.769Z,18.5
2018-03-28T21:14:18.544Z,17.5
2018-03-28T21:16:18.728Z,16.7
2018-03-28T21:18:18.573Z,16.6
2018-03-28T21:20:19.483Z,15.3
2018-03-28T21:22:19.304Z,15.9
2018-03-28T21:24:19.112Z,16.5
2018-03-28T21:26:18.651Z,16.1
2018-03-28T21:28:19.413Z,15.1
2018-03-28T21:30:19.165Z,16.3
2018-03-28T21:32:18.920Z,16.2
2018-03-28T21:34:18.704Z,16.4
2018-03-28T21:36:18.830Z,16.3
2018-03-28T21:38:18.616Z,15.4
2018-03-28T21:40:18.842Z,15
2018-03-28T21:42:18.612Z,13.8
2018-03-28T21:44:19.403Z,15.4
2018-03-28T21:46:18.515Z,16.2
2018-03-28T21:48:19.278Z,14.4
2018-03-28T21:50:19.069Z,13.8
2018-03-28T21:52:18.847Z,14.2
2018-03-28T21:54:18.674Z,15.4
2018-03-28T21:56:19.209Z,14.6
2018-03-28T21:58:18.975Z,15.3
2018-03-28T22:00:18.721Z,14.4
2018-03-28T22:02:19.465Z,14.9
2018-03-28T22:04:19.220Z,16
2018-03-28T22:06:18.875Z,15.6
2018-03-28T22:08:18.643Z,14
2018-03-28T22:10:18.879Z,14.9
2018-03-28T22:12:18.646Z,14.9
2018-03-28T22:14:19.376Z,13
2018-03-28T22:16:19.463Z,14.9
2018-03-28T22:18:19.306Z,16.1
2018-03-28T22:20:19.056Z,15.3
2018-03-28T22:22:18.811Z,15.7
2018-03-28T22:24:18.557Z,14.7
2018-03-28T22:26:19.166Z,14.3
2018-03-28T22:28:18.936Z,14.2
2018-03-28T22:30:18.718Z,13.8
2018-03-28T22:32:18.503Z,13.6
2018-03-28T22:34:19.262Z,13.6
2018-03-28T22:36:19.319Z,14.3
2018-03-28T22:38:19.089Z,13.6
2018-03-28T22:40:19.299Z,14.5
2018-03-28T22:42:19.086Z,14.8
2018-03-28T22:44:18.838Z,12.8
2018-03-28T22:46:18.997Z,15
2018-03-28T22:48:18.780Z,12.3
2018-03-28T22:50:18.581Z,14.3
2018-03-28T22:52:19.424Z,13.6
2018-03-28T22:54:19.209Z,12.9
2018-03-28T22:56:19.345Z,13
2018-03-28T22:58:19.137Z,14.7
2018-03-28T23:00:19.213Z,13.7
2018-03-28T23:02:18.521Z,13.2
2018-03-28T23:04:19.290Z,12.8
2018-03-28T23:06:19.044Z,13.7
2018-03-28T23:08:18.792Z,12.9
2018-03-28T23:10:19.012Z,13.8
2018-03-28T23:12:18.766Z,14
2018-03-28T23:14:18.526Z,14.1
2018-03-28T23:16:18.569Z,12.8
2018-03-28T23:18:19.398Z,13.6
2018-03-28T23:20:19.184Z,14.4
2018-03-28T23:22:18.959Z,15.1
2018-03-28T23:24:18.716Z,14.9
2018-03-28T23:26:18.809Z,14.7
2018-03-28T23:28:18.587Z,14.7
2018-03-28T23:30:19.357Z,15.3
2018-03-28T23:32:19.109Z,15.3
2018-03-28T23:34:18.850Z,15.5
2018-03-28T23:36:18.548Z,13.6
2018-03-28T23:38:19.298Z,14.3
2018-03-28T23:40:18.528Z,13.9
2018-03-28T23:42:19.318Z,14
2018-03-28T23:44:19.133Z,14.6
2018-03-28T23:46:18.707Z,15
2018-03-28T23:48:19.474Z,14.7
2018-03-28T23:50:19.303Z,14.7
2018-03-28T23:52:19.059Z,15.8
2018-03-28T23:54:18.808Z,15.1
2018-03-28T23:56:18.891Z,15.3
2018-03-28T23:58:18.677Z,14.6
